createdAt,value
2022-11-08T00:00:24.557Z,0.14
2022-11-08T00:00:36.735Z,0.14
2022-11-08T00:01:37.665Z,0.14
2022-11-08T00:02:37.564Z,0.14
2022-11-08T00:03:37.837Z,0.14
2022-11-08T00:04:39.329Z,0.14
2022-11-08T00:05:39.594Z,0.14
2022-11-08T00:06:40.028Z,0.14
2022-11-08T00:07:39.665Z,0.14
2022-11-08T00:08:40.982Z,0.14
2022-11-08T00:09:40.372Z,0.14
2022-11-08T00:10:41.990Z,0.14
2022-11-08T00:11:42.268Z,0.14
2022-11-08T00:12:42.580Z,0.14
2022-11-08T00:13:42.994Z,0.14
2022-11-08T00:14:42.302Z,0.14
2022-11-08T00:15:43.668Z,0.14
2022-11-08T00:16:43.296Z,0.14
2022-11-08T00:17:44.849Z,0.14
2022-11-08T00:18:45.297Z,0.14
2022-11-08T00:19:45.759Z,0.14
2022-11-08T00:20:45.309Z,0.14
2022-11-08T00:21:45.956Z,0.14
2022-11-08T00:21:54.701Z,0.14
2022-11-08T00:22:54.621Z,0.14
2022-11-08T00:23:55.982Z,0.14
2022-11-08T00:24:56.404Z,0.14
2022-11-08T00:25:56.807Z,0.09
2022-11-08T00:26:56.215Z,0.09
2022-11-08T00:27:57.620Z,0.09
2022-11-08T00:28:57.958Z,0.09
2022-11-08T00:29:58.698Z,0.09
2022-11-08T00:30:59.025Z,0.09
2022-11-08T00:31:58.426Z,0.09
2022-11-08T00:32:59.765Z,0.09
2022-11-08T00:33:59.988Z,0.09
2022-11-08T00:35:00.536Z,0.09
2022-11-08T00:36:00.975Z,0.09
2022-11-08T00:37:01.875Z,0.09
2022-11-08T00:38:02.195Z,0.09
2022-11-08T00:39:03.174Z,0.09
2022-11-08T00:40:03.927Z,0.09
2022-11-08T00:41:04.458Z,0.09
2022-11-08T00:42:05.042Z,0.09
2022-11-08T00:42:14.699Z,0.09
2022-11-08T00:43:16.244Z,0.14
2022-11-08T00:44:15.869Z,0.14
2022-11-08T00:45:17.193Z,0.14
2022-11-08T00:46:18.299Z,0.14
2022-11-08T00:47:16.589Z,0.14
2022-11-08T00:48:19.824Z,0.14
2022-11-08T00:49:17.791Z,0.14
2022-11-08T00:50:17.979Z,0.14
2022-11-08T00:51:19.511Z,0.14
2022-11-08T00:52:19.706Z,0.14
2022-11-08T00:53:19.019Z,0.14
2022-11-08T00:54:21.474Z,0.14
2022-11-08T00:55:21.175Z,0.14
2022-11-08T00:56:21.957Z,0.14
2022-11-08T00:57:27.539Z,0.14
2022-11-08T00:58:27.110Z,0.14
2022-11-08T00:59:22.046Z,0.14
2022-11-08T01:00:24.584Z,0.14
2022-11-08T01:01:22.704Z,0.14
2022-11-08T01:02:23.607Z,0.14
2022-11-08T01:03:23.831Z,0.14
2022-11-08T01:03:32.501Z,0.14
2022-11-08T01:04:33.506Z,0.14
2022-11-08T01:05:32.872Z,0.14
2022-11-08T01:06:33.838Z,0.14
2022-11-08T01:07:33.383Z,0.14
2022-11-08T01:08:34.756Z,0.14
2022-11-08T01:09:34.227Z,0.14
2022-11-08T01:10:34.678Z,0.14
2022-11-08T01:11:35.993Z,0.14
2022-11-08T01:12:36.323Z,0.14
2022-11-08T01:13:36.606Z,0.14
2022-11-08T01:14:36.955Z,0.14
2022-11-08T01:15:36.375Z,0.14
2022-11-08T01:16:36.509Z,0.14
2022-11-08T01:17:36.772Z,0.14
2022-11-08T01:18:37.004Z,0.14
2022-11-08T01:19:38.541Z,0.14
2022-11-08T01:20:38.935Z,0.14
2022-11-08T01:21:39.405Z,0.14
2022-11-08T01:22:39.773Z,0.14
2022-11-08T01:23:40.196Z,0.14
2022-11-08T01:24:40.408Z,0.14
2022-11-08T01:24:49.052Z,0.14
2022-11-08T01:25:50.643Z,0.14
2022-11-08T01:26:49.967Z,0.14
2022-11-08T01:27:51.410Z,0.14
2022-11-08T01:28:52.028Z,0.14
2022-11-08T01:29:52.429Z,0.14
2022-11-08T01:30:51.461Z,0.14
2022-11-08T01:31:51.932Z,0.14
2022-11-08T01:32:52.743Z,0.09
2022-11-08T01:33:54.141Z,0.09
2022-11-08T01:34:53.573Z,0.09
2022-11-08T01:35:55.128Z,0.09
2022-11-08T01:36:56.323Z,0.09
2022-11-08T01:37:55.632Z,0.14
2022-11-08T01:38:56.129Z,0.14
2022-11-08T01:39:55.688Z,0.14
2022-11-08T01:40:57.058Z,0.14
2022-11-08T01:41:57.486Z,0.14
2022-11-08T01:42:58.239Z,0.14
2022-11-08T01:43:58.884Z,0.14
2022-11-08T01:44:07.525Z,0.14
2022-11-08T01:45:08.696Z,0.14
2022-11-08T01:46:09.085Z,0.09
2022-11-08T01:47:09.373Z,0.09
2022-11-08T01:48:08.597Z,0.09
2022-11-08T01:49:09.774Z,0.09
2022-11-08T01:50:09.956Z,0.09
2022-11-08T01:51:10.313Z,0.09
2022-11-08T01:52:09.587Z,0.09
2022-11-08T03:43:13.091Z,0.00
2022-11-08T03:44:13.939Z,0.00
2022-11-08T03:45:15.126Z,0.00
2022-11-08T03:46:14.737Z,0.00
2022-11-08T03:47:16.044Z,0.00
2022-11-08T03:48:17.230Z,0.00
2022-11-08T03:49:16.116Z,0.00
2022-11-08T03:50:17.835Z,0.00
2022-11-08T03:51:18.322Z,0.00
2022-11-08T03:52:19.169Z,0.00
2022-11-08T03:53:19.869Z,0.00
2022-11-08T03:54:20.799Z,0.00
2022-11-08T03:54:29.535Z,0.00
2022-11-08T03:55:31.217Z,0.00
2022-11-08T03:56:31.885Z,0.00
2022-11-08T03:57:59.768Z,0.00
2022-11-08T03:59:00.522Z,0.00
2022-11-08T04:00:00.414Z,0.00
2022-11-08T04:01:01.863Z,0.00
2022-11-08T04:02:01.108Z,0.00
2022-11-08T04:03:01.895Z,0.00
2022-11-08T04:04:03.876Z,0.00
2022-11-08T04:05:04.753Z,0.00
2022-11-08T04:06:04.858Z,0.00
2022-11-08T04:07:05.606Z,0.00
2022-11-08T04:08:06.218Z,0.00
2022-11-08T04:09:06.961Z,0.00
2022-11-08T04:10:07.388Z,0.00
2022-11-08T04:11:08.036Z,0.00
2022-11-08T04:12:08.878Z,0.00
2022-11-08T04:13:09.435Z,0.00
2022-11-08T04:14:10.092Z,0.00
2022-11-08T04:15:09.427Z,0.00
2022-11-08T04:16:13.916Z,0.00
2022-11-08T04:17:10.875Z,0.00
2022-11-08T04:18:11.905Z,0.00
2022-11-08T04:19:11.797Z,0.00
2022-11-08T04:20:12.941Z,0.00
2022-11-08T04:20:21.616Z,0.00
2022-11-08T04:21:23.251Z,0.00
2022-11-08T04:22:23.225Z,0.00
2022-11-08T04:23:23.638Z,0.00
2022-11-08T04:24:24.488Z,0.00
2022-11-08T04:25:25.224Z,0.00
2022-11-08T04:26:25.711Z,0.00
2022-11-08T04:27:26.441Z,0.00
2022-11-08T04:28:27.062Z,0.00
2022-11-08T04:29:27.477Z,0.00
2022-11-08T04:30:26.628Z,0.00
2022-11-08T04:31:28.490Z,0.00
2022-11-08T04:32:28.861Z,0.00
2022-11-08T04:33:29.756Z,0.00
2022-11-08T04:34:29.557Z,0.00
2022-11-08T04:35:31.541Z,0.00
2022-11-08T04:36:31.762Z,0.00
2022-11-08T04:37:32.022Z,0.00
2022-11-08T04:38:32.391Z,0.00
2022-11-08T04:38:41.399Z,0.00
2022-11-08T04:39:42.318Z,0.00
2022-11-08T04:40:42.663Z,0.00
2022-11-08T04:41:44.602Z,0.00
2022-11-08T04:43:18.818Z,0.00
2022-11-08T04:44:19.560Z,0.00
2022-11-08T04:45:20.310Z,0.00
2022-11-08T04:46:20.760Z,0.00
2022-11-08T04:47:22.011Z,0.00
2022-11-08T04:48:22.826Z,0.00
2022-11-08T04:49:23.030Z,0.00
2022-11-08T04:50:24.026Z,0.00
2022-11-08T04:51:24.974Z,0.00
2022-11-08T04:52:25.912Z,0.00
2022-11-08T04:53:25.777Z,0.00
2022-11-08T04:54:27.726Z,0.00
2022-11-08T04:55:27.803Z,0.00
2022-11-08T04:56:28.748Z,0.00
2022-11-08T04:57:28.625Z,0.00
2022-11-08T04:58:30.520Z,0.00
2022-11-08T04:59:31.482Z,0.00
2022-11-08T05:00:32.063Z,0.00
2022-11-08T05:01:31.802Z,0.00
2022-11-08T05:02:32.110Z,0.00
2022-11-08T05:03:32.844Z,0.00
2022-11-08T05:03:41.478Z,0.00
2022-11-08T05:04:42.969Z,0.00
2022-11-08T05:05:43.839Z,0.00
2022-11-08T05:06:43.896Z,0.00
2022-11-08T05:07:44.045Z,0.00
2022-11-08T05:08:44.769Z,0.00
2022-11-08T05:09:45.227Z,0.00
2022-11-08T05:10:45.753Z,0.00
2022-11-08T05:11:46.572Z,0.00
2022-11-08T05:12:47.420Z,0.00
2022-11-08T05:13:48.000Z,0.00
2022-11-08T05:14:48.564Z,0.00
2022-11-08T05:15:49.350Z,0.00
2022-11-08T05:16:48.392Z,0.00
2022-11-08T05:17:49.910Z,0.00
2022-11-08T05:18:50.759Z,0.00
2022-11-08T05:19:51.318Z,0.00
2022-11-08T05:20:51.482Z,0.00
2022-11-08T05:21:52.060Z,0.00
2022-11-08T05:22:01.187Z,0.00
2022-11-08T05:23:01.219Z,0.00
2022-11-08T05:24:02.415Z,0.00
2022-11-08T05:25:02.333Z,0.00
2022-11-08T05:26:02.577Z,0.00
2022-11-08T05:27:03.955Z,0.00
2022-11-08T05:28:03.970Z,0.00
2022-11-08T05:29:03.205Z,0.00
2022-11-08T05:30:04.597Z,0.00
2022-11-08T05:31:04.339Z,0.00
2022-11-08T05:32:05.286Z,0.05
2022-11-08T05:33:06.738Z,0.05
2022-11-08T05:34:07.001Z,0.05
2022-11-08T05:35:07.940Z,0.05
2022-11-08T05:36:08.846Z,0.05
2022-11-08T05:37:09.018Z,0.05
2022-11-08T05:38:09.520Z,0.05
2022-11-08T05:39:09.883Z,0.05
2022-11-08T05:40:10.019Z,0.05
2022-11-08T05:41:10.194Z,0.05
2022-11-08T05:42:10.908Z,0.05
2022-11-08T05:43:10.031Z,0.09
2022-11-08T05:44:10.668Z,0.09
2022-11-08T05:44:19.827Z,0.09
2022-11-08T05:45:21.746Z,0.14
2022-11-08T05:46:22.648Z,0.14
2022-11-08T05:47:22.650Z,0.14
2022-11-08T05:48:24.361Z,0.18
2022-11-08T05:49:24.554Z,0.22
2022-11-08T05:50:25.186Z,0.31
2022-11-08T05:51:25.199Z,0.36
2022-11-08T05:52:25.418Z,0.45
2022-11-08T05:53:24.477Z,0.50
2022-11-08T05:54:26.001Z,0.58
2022-11-08T05:55:26.558Z,0.76
2022-11-08T05:56:27.073Z,0.94
2022-11-08T05:57:27.905Z,1.12
2022-11-08T05:58:28.697Z,1.26
2022-11-08T05:59:29.511Z,1.62
2022-11-08T06:00:30.195Z,1.89
2022-11-08T06:01:30.432Z,2.25
2022-11-08T06:02:30.500Z,2.79
2022-11-08T06:03:31.175Z,3.29
2022-11-08T06:04:30.882Z,3.96
2022-11-08T06:04:39.988Z,4.09
2022-11-08T06:05:41.948Z,4.82
2022-11-08T06:06:42.136Z,5.72
2022-11-08T06:07:42.361Z,6.70
2022-11-08T06:08:47.459Z,7.92
2022-11-08T06:09:41.679Z,9.23
2022-11-08T06:10:42.862Z,10.53
2022-11-08T06:11:43.881Z,11.88
2022-11-08T06:12:42.875Z,13.59
2022-11-08T06:13:44.526Z,15.75
2022-11-08T06:14:45.173Z,18.27
2022-11-08T06:15:45.449Z,20.79
2022-11-08T06:16:44.913Z,23.94
2022-11-08T06:17:45.062Z,27.72
2022-11-08T06:18:46.633Z,32.58
2022-11-08T06:19:47.107Z,38.70
2022-11-08T06:20:47.830Z,45.54
2022-11-08T06:21:48.150Z,52.56
2022-11-08T06:22:47.618Z,59.40
2022-11-08T06:23:49.429Z,66.60
2022-11-08T06:23:58.504Z,68.04
2022-11-08T06:24:58.530Z,75.96
2022-11-08T06:25:59.655Z,86.04
2022-11-08T06:27:00.314Z,96.48
2022-11-08T06:27:59.694Z,105.12
2022-11-08T06:29:01.545Z,113.04
2022-11-08T06:30:01.991Z,120.96
2022-11-08T06:31:02.515Z,131.76
2022-11-08T06:32:02.068Z,143.28
2022-11-08T06:33:02.689Z,152.64
2022-11-08T06:34:04.630Z,162.72
2022-11-08T06:35:04.718Z,176.40
2022-11-08T06:36:04.841Z,194.40
2022-11-08T06:37:05.769Z,214.56
2022-11-08T06:38:09.307Z,237.60
2022-11-08T06:39:06.357Z,260.64
2022-11-08T06:40:08.110Z,283.68
2022-11-08T06:41:07.849Z,302.40
2022-11-08T06:42:08.603Z,318.24
2022-11-08T06:43:11.051Z,335.52
2022-11-08T06:44:09.905Z,355.68
2022-11-08T06:45:11.179Z,371.52
2022-11-08T06:45:21.826Z,374.40
2022-11-08T06:46:23.701Z,391.68
2022-11-08T06:47:23.493Z,406.08
2022-11-08T06:48:24.299Z,423.36
2022-11-08T06:49:25.976Z,437.76
2022-11-08T06:50:25.271Z,452.16
2022-11-08T06:51:25.890Z,469.44
2022-11-08T06:52:27.524Z,492.48
2022-11-08T06:53:27.213Z,518.40
2022-11-08T06:54:28.937Z,544.32
2022-11-08T06:55:29.408Z,570.24
2022-11-08T06:56:30.163Z,599.04
2022-11-08T06:58:05.902Z,633.60
2022-11-08T06:59:05.638Z,656.64
2022-11-08T07:00:07.473Z,676.80
2022-11-08T07:01:06.762Z,696.96
2022-11-08T07:02:34.892Z,714.24
2022-11-08T07:03:35.718Z,731.52
2022-11-08T07:04:36.488Z,743.04
2022-11-08T07:05:38.256Z,754.56
2022-11-08T07:06:39.014Z,760.32
2022-11-08T07:07:39.210Z,760.32
2022-11-08T07:08:39.307Z,754.56
2022-11-08T07:09:39.952Z,760.32
2022-11-08T07:10:40.698Z,783.36
2022-11-08T07:11:41.505Z,806.40
2022-11-08T07:12:41.127Z,835.20
2022-11-08T07:13:41.812Z,887.04
2022-11-08T07:14:43.055Z,956.16
2022-11-08T07:15:43.959Z,1301.76
2022-11-08T07:16:44.657Z,1411.20
2022-11-08T07:17:45.168Z,1532.16
2022-11-08T07:18:44.895Z,1647.36
2022-11-08T07:19:45.306Z,1739.52
2022-11-08T07:20:47.276Z,1762.56
2022-11-08T07:21:47.255Z,1785.60
2022-11-08T07:22:48.171Z,1797.12
2022-11-08T07:23:48.805Z,1843.20
2022-11-08T07:23:57.472Z,1854.72
2022-11-08T07:24:57.801Z,1946.88
2022-11-08T07:25:59.431Z,2085.12
2022-11-08T07:27:00.517Z,2234.88
2022-11-08T07:27:59.525Z,2373.12
2022-11-08T07:28:59.289Z,2557.44
2022-11-08T07:30:00.629Z,2741.76
2022-11-08T07:31:00.093Z,2753.28
2022-11-08T07:32:00.544Z,2649.60
2022-11-08T07:33:00.626Z,2534.40
2022-11-08T07:34:00.945Z,2488.32
2022-11-08T07:35:02.061Z,2488.32
2022-11-08T07:36:01.745Z,2430.72
2022-11-08T07:37:03.595Z,2350.08
2022-11-08T07:38:04.281Z,2269.44
2022-11-08T07:39:06.768Z,2280.96
2022-11-08T07:40:04.136Z,2269.44
2022-11-08T07:41:05.000Z,2211.84
2022-11-08T07:42:06.446Z,2165.76
2022-11-08T07:43:12.327Z,2142.72
2022-11-08T07:44:06.789Z,2108.16
2022-11-08T07:45:07.381Z,2096.64
2022-11-08T07:46:09.100Z,2096.64
2022-11-08T07:47:08.933Z,2096.64
2022-11-08T07:47:17.576Z,2096.64
2022-11-08T07:48:19.281Z,2050.56
2022-11-08T07:49:18.422Z,2016.00
2022-11-08T07:50:19.275Z,2016.00
2022-11-08T07:51:20.875Z,2050.56
2022-11-08T07:52:20.518Z,2085.12
2022-11-08T07:53:22.485Z,2177.28
2022-11-08T07:54:22.750Z,2280.96
2022-11-08T07:55:23.316Z,2407.68
2022-11-08T07:56:23.617Z,2545.92
2022-11-08T07:57:23.632Z,2730.24
2022-11-08T07:58:23.805Z,2949.12
2022-11-08T07:59:24.075Z,3202.56
2022-11-08T08:00:24.826Z,3479.04
2022-11-08T08:01:25.199Z,3755.52
2022-11-08T08:02:24.259Z,4124.16
2022-11-08T08:03:25.142Z,4515.84
2022-11-08T08:04:25.445Z,4861.44
2022-11-08T08:05:27.297Z,4930.56
2022-11-08T08:06:28.117Z,4884.48
2022-11-08T08:07:28.928Z,4907.52
2022-11-08T08:07:37.588Z,4907.52
2022-11-08T08:08:38.594Z,4999.68
2022-11-08T08:09:39.564Z,5137.92
2022-11-08T08:10:40.260Z,5276.16
2022-11-08T08:11:40.263Z,5414.40
2022-11-08T08:12:42.223Z,5529.60
2022-11-08T08:13:41.595Z,5575.68
2022-11-08T08:14:42.961Z,5644.80
2022-11-08T08:15:42.443Z,5736.96
2022-11-08T08:16:42.566Z,5852.16
2022-11-08T08:17:43.641Z,6036.48
2022-11-08T08:18:42.966Z,6174.72
2022-11-08T08:19:43.073Z,6312.96
2022-11-08T08:20:44.867Z,6405.12
2022-11-08T08:21:44.509Z,6497.28
2022-11-08T08:22:44.662Z,6497.28
2022-11-08T08:23:46.131Z,6497.28
2022-11-08T08:24:46.265Z,6451.20
2022-11-08T08:25:46.223Z,6220.80
2022-11-08T08:26:47.846Z,5944.32
2022-11-08T08:27:48.693Z,5852.16
2022-11-08T08:28:48.653Z,5760.00
2022-11-08T08:28:58.715Z,5736.96
2022-11-08T08:30:00.333Z,5713.92
2022-11-08T08:31:01.112Z,5806.08
2022-11-08T08:32:00.299Z,5990.40
2022-11-08T08:33:26.319Z,6220.80
2022-11-08T08:34:00.647Z,6405.12
2022-11-08T08:35:00.656Z,6589.44
2022-11-08T08:36:01.522Z,6681.60
2022-11-08T08:37:01.819Z,6681.60
2022-11-08T08:38:03.056Z,6589.44
2022-11-08T08:39:03.071Z,6451.20
2022-11-08T08:40:03.483Z,6266.88
2022-11-08T08:41:04.085Z,6036.48
2022-11-08T08:42:04.723Z,5898.24
2022-11-08T08:43:03.811Z,5783.04
2022-11-08T08:44:04.652Z,5621.76
2022-11-08T08:45:08.481Z,5437.44
2022-11-08T08:46:04.898Z,5230.08
2022-11-08T08:47:06.652Z,5114.88
2022-11-08T08:48:07.340Z,5068.80
2022-11-08T08:49:08.308Z,5091.84
2022-11-08T08:50:08.029Z,5114.88
2022-11-08T08:51:09.850Z,5091.84
2022-11-08T08:51:20.820Z,5091.84
2022-11-08T08:52:22.761Z,5114.88
2022-11-08T08:53:23.729Z,5207.04
2022-11-08T08:54:29.204Z,5276.16
2022-11-08T08:55:23.239Z,5299.20
2022-11-08T08:56:24.308Z,5368.32
2022-11-08T08:57:24.953Z,5529.60
2022-11-08T08:58:25.817Z,5713.92
2022-11-08T09:01:42.021Z,6405.12
2022-11-08T09:02:27.480Z,6727.68
2022-11-08T09:03:29.388Z,7004.16
2022-11-08T09:04:30.145Z,7280.64
2022-11-08T09:05:29.541Z,7511.04
2022-11-08T09:06:31.246Z,7649.28
2022-11-08T09:07:30.664Z,7741.44
2022-11-08T09:08:31.775Z,7695.36
2022-11-08T09:09:31.197Z,7649.28
2022-11-08T09:10:33.090Z,7557.12
2022-11-08T09:11:33.888Z,7464.96
2022-11-08T09:11:42.521Z,7464.96
2022-11-08T09:12:44.272Z,7372.80
2022-11-08T09:13:44.554Z,7280.64
2022-11-08T09:14:45.483Z,7234.56
2022-11-08T09:15:46.053Z,7096.32
2022-11-08T09:16:45.930Z,7004.16
2022-11-08T09:17:48.738Z,6819.84
2022-11-08T09:18:48.292Z,6635.52
2022-11-08T09:19:50.848Z,6405.12
2022-11-08T09:20:48.711Z,6220.80
2022-11-08T09:21:48.970Z,6036.48
2022-11-08T09:22:49.617Z,5944.32
2022-11-08T09:23:51.518Z,5990.40
2022-11-08T09:24:52.370Z,6174.72
2022-11-08T09:25:52.127Z,6451.20
2022-11-08T09:26:53.033Z,6773.76
2022-11-08T09:27:54.747Z,7188.48
2022-11-08T09:28:55.727Z,7603.20
2022-11-08T09:29:54.974Z,7971.84
2022-11-08T09:30:55.706Z,8248.32
2022-11-08T09:31:56.222Z,8432.64
2022-11-08T09:33:01.203Z,8570.88
2022-11-08T09:33:56.650Z,8663.04
2022-11-08T09:34:57.425Z,8847.36
2022-11-08T09:35:57.693Z,9031.68
2022-11-08T09:36:59.310Z,9216.00
2022-11-08T09:37:07.899Z,9216.00
2022-11-08T09:38:09.622Z,9354.24
2022-11-08T09:39:10.552Z,9354.24
2022-11-08T09:40:10.607Z,9354.24
2022-11-08T09:41:10.390Z,9354.24
2022-11-08T09:42:10.954Z,9308.16
2022-11-08T09:43:12.553Z,9308.16
2022-11-08T09:44:13.075Z,9308.16
2022-11-08T09:45:13.967Z,9216.00
2022-11-08T09:46:14.420Z,9169.92
2022-11-08T09:47:16.246Z,9031.68
2022-11-08T09:48:14.298Z,8939.52
2022-11-08T09:49:16.188Z,8847.36
2022-11-08T09:50:17.008Z,8709.12
2022-11-08T09:51:16.498Z,8570.88
2022-11-08T09:52:17.519Z,8432.64
2022-11-08T09:53:18.156Z,8294.40
2022-11-08T09:53:26.783Z,8294.40
2022-11-08T09:54:28.260Z,8248.32
2022-11-08T09:55:30.987Z,8202.24
2022-11-08T09:56:28.895Z,8248.32
2022-11-08T09:57:29.230Z,8294.40
2022-11-08T09:58:30.807Z,8432.64
2022-11-08T09:59:31.690Z,8570.88
2022-11-08T10:00:30.981Z,8755.20
2022-11-08T10:01:33.013Z,8893.44
2022-11-08T10:02:32.704Z,8985.60
2022-11-08T10:03:34.601Z,8939.52
2022-11-08T10:04:33.830Z,8847.36
2022-11-08T10:05:35.564Z,8616.96
2022-11-08T10:06:37.014Z,8294.40
2022-11-08T10:07:35.000Z,7925.76
2022-11-08T10:08:36.782Z,7557.12
2022-11-08T10:09:37.108Z,7234.56
2022-11-08T10:10:37.674Z,6958.08
2022-11-08T10:11:39.373Z,6681.60
2022-11-08T10:13:12.321Z,6266.88
2022-11-08T10:14:12.436Z,6082.56
2022-11-08T10:15:13.995Z,5898.24
2022-11-08T10:16:14.680Z,5806.08
2022-11-08T10:17:14.985Z,5713.92
2022-11-08T10:18:15.704Z,5598.72
2022-11-08T10:19:16.106Z,5506.56
2022-11-08T10:20:15.679Z,5437.44
2022-11-08T10:21:17.602Z,5368.32
2022-11-08T10:22:17.190Z,5345.28
2022-11-08T10:23:19.182Z,5299.20
2022-11-08T10:24:18.307Z,5253.12
2022-11-08T10:25:18.800Z,5207.04
2022-11-08T10:26:24.110Z,5137.92
2022-11-08T10:27:20.153Z,5068.80
2022-11-08T10:28:21.447Z,4999.68
2022-11-08T10:29:22.316Z,4953.60
2022-11-08T10:30:21.820Z,4930.56
2022-11-08T10:31:22.612Z,4907.52
2022-11-08T10:32:24.844Z,4907.52
2022-11-08T10:33:23.525Z,4953.60
2022-11-08T10:34:24.950Z,5022.72
2022-11-08T10:35:25.647Z,5114.88
2022-11-08T10:35:34.240Z,5137.92
2022-11-08T10:36:36.003Z,5230.08
2022-11-08T10:37:35.492Z,5299.20
2022-11-08T10:38:36.344Z,5368.32
2022-11-08T10:39:38.337Z,5391.36
2022-11-08T10:40:38.703Z,5391.36
2022-11-08T10:41:39.285Z,5368.32
2022-11-08T10:42:39.549Z,5322.24
2022-11-08T10:43:40.389Z,5276.16
2022-11-08T10:44:41.382Z,5253.12
2022-11-08T10:45:42.000Z,5299.20
2022-11-08T10:46:42.826Z,5391.36
2022-11-08T10:47:42.488Z,5621.76
2022-11-08T10:48:43.599Z,5667.84
2022-11-08T10:49:43.611Z,5829.12
2022-11-08T10:50:43.433Z,6036.48
2022-11-08T10:51:45.344Z,6220.80
2022-11-08T10:52:45.063Z,6405.12
2022-11-08T10:53:46.280Z,6543.36
2022-11-08T10:54:46.871Z,6773.76
2022-11-08T10:54:55.565Z,6773.76
2022-11-08T10:55:55.550Z,7004.16
2022-11-08T10:56:56.823Z,7326.72
2022-11-08T10:57:57.515Z,7511.04
2022-11-08T10:58:56.541Z,7741.44
2022-11-08T10:59:58.477Z,8064.00
2022-11-08T11:00:58.866Z,8386.56
2022-11-08T11:01:59.172Z,8801.28
2022-11-08T11:02:59.397Z,8755.20
2022-11-08T11:03:59.551Z,8478.72
2022-11-08T11:05:00.410Z,8248.32
2022-11-08T11:06:00.737Z,8064.00
2022-11-08T11:07:00.976Z,7971.84
2022-11-08T11:08:01.959Z,7971.84
2022-11-08T11:09:01.054Z,7971.84
2022-11-08T11:10:02.721Z,8017.92
2022-11-08T11:11:02.800Z,8064.00
2022-11-08T11:12:02.898Z,8064.00
2022-11-08T11:13:02.181Z,8156.16
2022-11-08T11:14:03.314Z,8294.40
2022-11-08T11:15:03.424Z,8524.80
2022-11-08T11:15:12.611Z,8616.96
2022-11-08T11:16:14.472Z,9031.68
2022-11-08T11:17:15.348Z,11335.68
2022-11-08T11:18:15.410Z,13178.88
2022-11-08T11:19:15.168Z,15022.08
2022-11-08T11:20:17.095Z,12902.40
2022-11-08T11:21:17.513Z,11427.84
2022-11-08T11:22:18.274Z,10782.72
2022-11-08T11:23:18.011Z,12072.96
2022-11-08T11:24:19.519Z,12165.12
2022-11-08T11:25:18.801Z,12533.76
2022-11-08T11:26:20.137Z,12349.44
2022-11-08T11:27:19.814Z,13731.84
2022-11-08T11:28:21.427Z,14008.32
2022-11-08T11:29:20.888Z,18800.64
2022-11-08T11:30:22.065Z,13086.72
2022-11-08T11:31:22.842Z,12441.60
2022-11-08T11:32:22.819Z,12533.76
2022-11-08T11:32:31.452Z,13086.72
2022-11-08T11:33:33.206Z,13086.72
2022-11-08T11:34:32.722Z,12718.08
2022-11-08T11:35:35.772Z,11750.40
2022-11-08T11:36:37.229Z,11059.20
2022-11-08T11:37:36.218Z,11151.36
2022-11-08T11:38:35.913Z,11381.76
2022-11-08T11:39:37.611Z,12165.12
2022-11-08T11:40:38.105Z,12625.92
2022-11-08T11:41:38.370Z,13547.52
2022-11-08T11:42:46.654Z,13639.68
2022-11-08T11:43:38.423Z,13363.20
2022-11-08T11:44:38.873Z,14008.32
2022-11-08T11:45:40.802Z,14469.12
2022-11-08T11:46:41.743Z,15390.72
2022-11-08T11:47:41.010Z,14284.80
2022-11-08T11:48:43.729Z,15298.56
2022-11-08T11:49:43.209Z,13086.72
2022-11-08T11:50:44.048Z,12072.96
2022-11-08T11:51:43.894Z,11796.48
2022-11-08T11:52:43.820Z,11796.48
2022-11-08T11:53:04.719Z,11888.64
2022-11-08T11:54:06.125Z,11888.64
2022-11-08T11:55:05.928Z,11888.64
2022-11-08T11:56:07.430Z,12625.92
2022-11-08T11:57:07.823Z,12349.44
2022-11-08T11:58:08.516Z,11796.48
2022-11-08T11:59:08.825Z,11059.20
2022-11-08T12:00:09.765Z,10506.24
2022-11-08T12:01:14.057Z,10229.76
2022-11-08T12:02:09.028Z,10137.60
2022-11-08T12:03:09.527Z,10183.68
2022-11-08T12:04:09.627Z,10321.92
2022-11-08T12:05:46.212Z,10460.16
2022-11-08T12:06:43.499Z,10137.60
2022-11-08T12:07:43.969Z,9630.72
2022-11-08T12:08:44.573Z,9169.92
2022-11-08T12:09:44.619Z,8663.04
2022-11-08T12:10:45.895Z,8294.40
2022-11-08T12:11:46.573Z,8110.08
2022-11-08T12:12:47.139Z,8110.08
2022-11-08T12:13:53.135Z,8064.00
2022-11-08T12:14:47.515Z,8064.00
2022-11-08T12:15:48.986Z,8017.92
2022-11-08T12:16:48.907Z,7971.84
2022-11-08T12:17:50.245Z,7879.68
2022-11-08T12:18:51.902Z,7833.60
2022-11-08T12:19:50.823Z,7879.68
2022-11-08T12:20:51.295Z,7925.76
2022-11-08T12:21:51.448Z,8064.00
2022-11-08T12:22:52.044Z,8340.48
2022-11-08T12:23:53.545Z,8709.12
2022-11-08T12:24:53.491Z,9123.84
2022-11-08T12:25:54.904Z,9538.56
2022-11-08T12:26:54.699Z,10275.84
2022-11-08T12:27:54.931Z,10045.44
2022-11-08T12:29:25.722Z,9907.20
2022-11-08T12:30:25.739Z,9953.28
2022-11-08T12:31:27.431Z,9999.36
2022-11-08T12:32:28.315Z,10137.60
2022-11-08T12:33:29.082Z,10368.00
2022-11-08T12:34:28.229Z,11059.20
2022-11-08T12:35:28.433Z,11473.92
2022-11-08T12:36:28.621Z,12810.24
2022-11-08T12:37:36.382Z,12718.08
2022-11-08T12:38:29.328Z,13271.04
2022-11-08T12:39:30.686Z,14192.64
2022-11-08T12:40:29.813Z,12349.44
2022-11-08T12:41:31.037Z,11473.92
2022-11-08T12:42:30.240Z,11105.28
2022-11-08T12:43:30.787Z,10874.88
2022-11-08T12:44:30.815Z,10967.04
2022-11-08T12:45:31.358Z,10644.48
2022-11-08T12:46:32.468Z,10321.92
2022-11-08T12:47:32.390Z,10229.76
2022-11-08T12:48:34.162Z,10137.60
2022-11-08T12:49:34.122Z,10045.44
2022-11-08T12:50:36.948Z,9768.96
2022-11-08T12:51:35.364Z,9308.16
2022-11-08T12:52:37.048Z,8755.20
2022-11-08T12:53:36.937Z,8386.56
2022-11-08T12:54:37.348Z,8294.40
2022-11-08T12:54:46.803Z,8294.40
2022-11-08T12:55:47.459Z,8386.56
2022-11-08T12:56:48.616Z,8570.88
2022-11-08T12:57:47.963Z,8755.20
2022-11-08T12:58:49.472Z,8801.28
2022-11-08T12:59:50.418Z,8663.04
2022-11-08T13:00:51.237Z,8570.88
2022-11-08T13:01:51.123Z,8524.80
2022-11-08T13:02:53.002Z,8478.72
2022-11-08T13:03:53.701Z,8386.56
2022-11-08T13:04:54.343Z,8340.48
2022-11-08T13:05:54.152Z,8340.48
2022-11-08T13:06:53.570Z,8340.48
2022-11-08T13:07:53.931Z,8294.40
2022-11-08T13:08:55.785Z,8156.16
2022-11-08T13:09:56.393Z,8017.92
2022-11-08T13:10:56.138Z,7833.60
2022-11-08T13:11:57.429Z,7695.36
2022-11-08T13:12:57.467Z,7511.04
2022-11-08T13:13:57.575Z,7372.80
2022-11-08T13:14:06.642Z,7326.72
2022-11-08T13:15:06.707Z,7188.48
2022-11-08T13:16:08.200Z,7004.16
2022-11-08T13:17:09.047Z,6773.76
2022-11-08T13:18:08.855Z,6497.28
2022-11-08T13:19:09.447Z,6220.80
2022-11-08T13:20:09.610Z,5875.20
2022-11-08T13:21:11.283Z,5506.56
2022-11-08T13:22:12.095Z,5207.04
2022-11-08T13:23:11.843Z,5022.72
2022-11-08T13:24:38.428Z,4999.68
2022-11-08T13:25:12.565Z,5091.84
2022-11-08T13:26:12.629Z,5114.88
2022-11-08T13:27:12.760Z,5345.28
2022-11-08T13:28:14.256Z,4907.52
2022-11-08T13:29:13.654Z,4792.32
2022-11-08T13:30:14.808Z,4884.48
2022-11-08T13:31:14.892Z,4838.40
2022-11-08T13:32:14.918Z,4930.56
2022-11-08T13:33:15.112Z,4723.20
2022-11-08T13:34:15.691Z,4700.16
2022-11-08T13:35:15.579Z,4700.16
2022-11-08T13:35:24.304Z,4700.16
2022-11-08T13:36:25.239Z,4723.20
2022-11-08T13:37:27.323Z,4677.12
2022-11-08T13:38:26.806Z,4608.00
2022-11-08T13:39:27.272Z,4515.84
2022-11-08T13:40:28.903Z,4400.64
2022-11-08T13:41:28.041Z,4331.52
2022-11-08T13:42:29.913Z,4308.48
2022-11-08T13:43:30.725Z,4285.44
2022-11-08T13:44:30.928Z,4262.40
2022-11-08T13:45:31.783Z,4216.32
2022-11-08T13:46:33.418Z,4170.24
2022-11-08T13:47:33.152Z,4124.16
2022-11-08T13:48:33.815Z,4008.96
2022-11-08T13:49:33.459Z,4170.24
2022-11-08T13:50:35.395Z,4423.68
2022-11-08T13:51:36.366Z,3916.80
2022-11-08T13:52:37.204Z,4262.40
2022-11-08T13:53:37.232Z,5345.28
2022-11-08T13:54:38.069Z,5529.60
2022-11-08T13:55:38.756Z,5160.96
2022-11-08T13:55:49.264Z,5207.04
2022-11-08T13:56:49.299Z,5898.24
2022-11-08T13:57:49.731Z,6128.64
2022-11-08T13:58:50.766Z,6266.88
2022-11-08T13:59:50.632Z,6819.84
2022-11-08T14:00:51.959Z,6635.52
2022-11-08T14:01:51.798Z,6865.92
2022-11-08T14:02:51.906Z,6727.68
2022-11-08T14:03:52.940Z,6220.80
2022-11-08T14:04:53.064Z,7557.12
2022-11-08T14:05:53.996Z,6819.84